createdAt,value
2018-06-08T00:01:21.871Z,101026.87
2018-06-08T00:03:50.796Z,101024.98
2018-06-08T00:06:19.726Z,101020.31
2018-06-08T00:08:48.619Z,101023.04
2018-06-08T00:11:17.851Z,101025.23
2018-06-08T00:13:46.796Z,101023.86
2018-06-08T00:16:15.727Z,101030.68
2018-06-08T00:18:44.810Z,101024.44
2018-06-08T00:21:13.740Z,101025.54
2018-06-08T00:23:42.735Z,101022.00
2018-06-08T00:26:11.640Z,101026.08
2018-06-08T00:28:40.588Z,101016.25
2018-06-08T00:31:09.516Z,101017.89
2018-06-08T00:33:38.455Z,101009.42
2018-06-08T00:36:07.355Z,101015.44
2018-06-08T00:38:36.290Z,101017.05
2018-06-08T00:41:05.208Z,101015.95
2018-06-08T00:43:34.126Z,101012.39
2018-06-08T00:46:03.036Z,101009.41
2018-06-08T00:48:31.984Z,101007.23
2018-06-08T00:51:00.883Z,101003.95
2018-06-08T00:53:29.783Z,101008.06
2018-06-08T00:55:58.703Z,101000.97
2018-06-08T00:58:27.644Z,101006.14
2018-06-08T01:00:56.604Z,101005.88
2018-06-08T01:03:25.500Z,101000.95
2018-06-08T01:05:54.415Z,101004.22
2018-06-08T01:08:23.362Z,101005.60
2018-06-08T01:10:52.661Z,101009.41
2018-06-08T01:13:21.576Z,100997.95
2018-06-08T01:15:50.494Z,101002.61
2018-06-08T01:18:19.491Z,100998.78
2018-06-08T01:20:48.709Z,100999.87
2018-06-08T01:23:17.623Z,100997.69
2018-06-08T01:25:46.528Z,100999.58
2018-06-08T01:28:15.462Z,100999.31
2018-06-08T01:30:44.719Z,100997.67
2018-06-08T01:33:13.690Z,101009.39
2018-06-08T01:35:42.607Z,101007.45
2018-06-08T01:38:11.542Z,101003.66
2018-06-08T01:40:40.453Z,101011.55
2018-06-08T01:43:09.459Z,101008.58
2018-06-08T01:45:38.382Z,101010.48
2018-06-08T01:48:07.304Z,101010.17
2018-06-08T01:50:36.237Z,101011.55
2018-06-08T01:53:05.265Z,101004.71
2018-06-08T01:55:34.216Z,101006.89
2018-06-08T01:58:03.146Z,101004.45
2018-06-08T02:00:32.110Z,101001.16
2018-06-08T02:03:01.055Z,101002.52
2018-06-08T02:05:29.954Z,101007.18
2018-06-08T02:07:58.851Z,101003.34
2018-06-08T02:10:27.800Z,101003.59
2018-06-08T02:12:56.748Z,101013.47
2018-06-08T02:15:25.676Z,101002.83
2018-06-08T02:17:54.620Z,101004.45
2018-06-08T02:20:23.568Z,101004.17
2018-06-08T02:22:52.584Z,101001.44
2018-06-08T02:25:21.493Z,100997.88
2018-06-08T02:27:50.413Z,100999.77
2018-06-08T02:30:19.328Z,100994.03
2018-06-08T02:32:48.269Z,100997.06
2018-06-08T02:35:17.200Z,101001.44
2018-06-08T02:37:46.129Z,100994.32
2018-06-08T02:40:15.046Z,101001.70
2018-06-08T02:42:43.987Z,100998.68
2018-06-08T02:45:12.904Z,101005.50
2018-06-08T02:47:41.866Z,100996.47
2018-06-08T02:50:10.763Z,100992.91
2018-06-08T02:52:39.703Z,100994.00
2018-06-08T02:55:08.609Z,100995.91
2018-06-08T02:57:37.819Z,100995.95
2018-06-08T03:00:06.796Z,100989.45
2018-06-08T03:02:36.018Z,100997.36
2018-06-08T03:05:04.998Z,100993.53
2018-06-08T03:07:33.931Z,100997.89
2018-06-08T03:10:02.886Z,100995.68
2018-06-08T03:12:31.830Z,100992.95
2018-06-08T03:15:00.746Z,100986.69
2018-06-08T03:17:29.657Z,100982.02
2018-06-08T03:19:58.596Z,100990.22
2018-06-08T03:22:27.546Z,100982.08
2018-06-08T03:24:56.502Z,100989.22
2018-06-08T03:27:25.661Z,100992.46
2018-06-08T03:29:54.596Z,100993.02
2018-06-08T03:32:23.526Z,100991.34
2018-06-08T03:34:52.435Z,100987.52
2018-06-08T03:37:21.393Z,100994.36
2018-06-08T03:39:50.317Z,100994.34
2018-06-08T03:42:19.229Z,100999.28
2018-06-08T03:44:48.176Z,101001.18
2018-06-08T03:47:17.103Z,101000.13
2018-06-08T03:49:46.048Z,100998.45
2018-06-08T03:52:14.983Z,101000.09
2018-06-08T03:54:43.914Z,101001.77
2018-06-08T03:57:12.819Z,101003.37
2018-06-08T03:59:41.825Z,101001.99
2018-06-08T04:02:10.756Z,101004.20
2018-06-08T04:04:39.686Z,100995.99
2018-06-08T04:07:08.606Z,100996.52
2018-06-08T04:09:37.563Z,101000.62
2018-06-08T04:12:06.481Z,100989.16
2018-06-08T04:14:36.270Z,100995.44
2018-06-08T04:17:05.202Z,100997.36
2018-06-08T04:19:34.146Z,100996.28
2018-06-08T04:22:03.086Z,100996.55
2018-06-08T04:24:31.988Z,100996.02
2018-06-08T04:27:00.913Z,100984.80
2018-06-08T04:29:29.830Z,100988.89
2018-06-08T04:32:02.565Z,100992.70
2018-06-08T04:34:31.486Z,100998.47
2018-06-08T04:37:00.392Z,100994.09
2018-06-08T04:39:29.314Z,100985.63
2018-06-08T04:41:58.215Z,100990.27
2018-06-08T04:44:27.154Z,100989.48
2018-06-08T04:46:56.100Z,100995.18
2018-06-08T04:49:25.025Z,100989.47
2018-06-08T04:51:53.943Z,100993.56
2018-06-08T04:54:22.892Z,100987.25
2018-06-08T04:56:52.885Z,100989.44
2018-06-08T04:59:22.437Z,100997.08
2018-06-08T05:01:51.331Z,100993.77
2018-06-08T05:04:20.269Z,100992.98
2018-06-08T05:06:49.193Z,100998.98
2018-06-08T05:09:18.231Z,100995.97
2018-06-08T05:11:47.175Z,100997.88
2018-06-08T05:14:16.058Z,101000.60
2018-06-08T05:16:45.036Z,100997.87
2018-06-08T05:19:14.131Z,101001.70
2018-06-08T05:21:43.082Z,100998.70
2018-06-08T05:24:12.111Z,101000.32
2018-06-08T05:26:41.017Z,101002.20
2018-06-08T05:29:09.984Z,100997.30
2018-06-08T05:31:38.929Z,101000.83
2018-06-08T05:34:11.062Z,101007.13
2018-06-08T05:36:39.993Z,101006.02
2018-06-08T05:39:09.535Z,101003.02
2018-06-08T05:41:38.439Z,101008.51
2018-06-08T05:44:07.357Z,101013.15
2018-06-08T05:46:36.509Z,101012.32
2018-06-08T05:49:05.426Z,101015.59
2018-06-08T05:51:34.331Z,101017.76
2018-06-08T05:54:03.276Z,101020.20
2018-06-08T05:56:32.198Z,101022.42
2018-06-08T05:59:01.110Z,101020.23
2018-06-08T06:01:30.008Z,101024.61
2018-06-08T06:03:58.936Z,101025.39
2018-06-08T06:06:27.890Z,101033.05
2018-06-08T06:08:56.931Z,101034.11
2018-06-08T06:11:25.839Z,101037.65
2018-06-08T06:13:54.762Z,101037.15
2018-06-08T06:16:23.674Z,101033.33
2018-06-08T06:18:52.617Z,101045.11
2018-06-08T06:21:21.542Z,101036.09
2018-06-08T06:23:50.476Z,101038.25
2018-06-08T06:26:19.394Z,101034.70
2018-06-08T06:28:48.334Z,101030.06
2018-06-08T06:31:17.254Z,101035.80
2018-06-08T06:33:46.184Z,101035.52
2018-06-08T06:36:15.109Z,101045.09
2018-06-08T06:38:44.041Z,101053.01
2018-06-08T06:41:12.929Z,101046.72
2018-06-08T06:43:41.859Z,101045.05
2018-06-08T06:46:10.825Z,101043.42
2018-06-08T06:48:39.751Z,101049.17
2018-06-08T06:51:08.670Z,101049.95
2018-06-08T06:53:37.590Z,101051.86
2018-06-08T06:56:06.534Z,101047.79
2018-06-08T06:58:35.448Z,101055.16
2018-06-08T07:01:04.420Z,101051.86
2018-06-08T07:03:33.331Z,101056.75
2018-06-08T07:06:02.273Z,101055.91
2018-06-08T07:08:31.215Z,101061.08
2018-06-08T07:11:00.143Z,101061.59
2018-06-08T07:13:29.068Z,101053.14
2018-06-08T07:15:57.980Z,101057.77
2018-06-08T07:18:26.919Z,101054.46
2018-06-08T07:20:55.850Z,101059.34
2018-06-08T07:23:24.787Z,101057.44
2018-06-08T07:25:53.766Z,101059.34
2018-06-08T07:28:22.700Z,101059.31
2018-06-08T07:30:51.646Z,101058.73
2018-06-08T07:33:20.589Z,101071.31
2018-06-08T07:35:49.492Z,101075.98
2018-06-08T07:38:18.426Z,101078.44
2018-06-08T07:40:47.343Z,101074.05
2018-06-08T07:43:16.274Z,101072.69
2018-06-08T07:45:45.206Z,101073.50
2018-06-08T07:48:14.157Z,101080.03
2018-06-08T07:50:43.104Z,101077.30
2018-06-08T07:53:12.024Z,101078.10
2018-06-08T07:55:40.964Z,101074.50
2018-06-08T07:58:13.526Z,101079.38
2018-06-08T08:00:42.788Z,101082.89
2018-06-08T08:03:11.729Z,101082.91
2018-06-08T08:05:40.607Z,101081.23
2018-06-08T08:08:09.543Z,101081.80
2018-06-08T08:10:39.647Z,101082.88
2018-06-08T08:13:08.604Z,101091.05
2018-06-08T08:15:37.515Z,101086.47
2018-06-08T08:18:06.425Z,101088.08
2018-06-08T08:20:35.345Z,101095.20
2018-06-08T08:23:04.272Z,101100.70
2018-06-08T08:25:33.210Z,101104.02
2018-06-08T08:28:02.135Z,101102.89
2018-06-08T08:30:31.050Z,101109.17
2018-06-08T08:32:59.997Z,101106.21
2018-06-08T08:35:28.925Z,101109.79
2018-06-08T08:37:57.835Z,101113.86
2018-06-08T08:40:26.764Z,101109.80
2018-06-08T08:42:55.678Z,101106.83
2018-06-08T08:45:24.633Z,101109.53
2018-06-08T08:47:53.569Z,101117.95
2018-06-08T08:50:22.506Z,101123.94
2018-06-08T08:52:51.441Z,101117.09
2018-06-08T08:55:20.350Z,101122.81
2018-06-08T08:57:49.296Z,101119.02
2018-06-08T09:00:18.215Z,101119.27
2018-06-08T09:02:47.208Z,101120.31
2018-06-08T09:05:16.128Z,101123.02
2018-06-08T09:07:45.062Z,101126.30
2018-06-08T09:10:14.002Z,101132.63
2018-06-08T09:12:42.910Z,101138.63
2018-06-08T09:15:11.849Z,101129.00
2018-06-08T09:17:40.770Z,101131.47
2018-06-08T09:20:09.762Z,101129.80
2018-06-08T09:22:38.656Z,101128.37
2018-06-08T09:25:07.559Z,101125.07
2018-06-08T09:27:36.865Z,101133.77
2018-06-08T09:30:05.833Z,101132.09
2018-06-08T09:32:34.749Z,101127.44
2018-06-08T09:35:03.708Z,101130.67
2018-06-08T09:37:32.642Z,101130.97
2018-06-08T09:40:01.611Z,101139.16
2018-06-08T09:42:30.467Z,101141.88
2018-06-08T09:44:59.401Z,101143.09
2018-06-08T09:47:28.328Z,101147.78
2018-06-08T09:49:57.241Z,101151.56
2018-06-08T09:52:26.168Z,101151.56
2018-06-08T09:54:55.078Z,101152.72
2018-06-08T09:57:24.262Z,101155.52
2018-06-08T09:59:53.157Z,101152.98
2018-06-08T10:02:22.063Z,101147.59
2018-06-08T10:04:50.989Z,101142.42
2018-06-08T10:07:19.913Z,101142.11
2018-06-08T10:09:48.837Z,101134.98
2018-06-08T10:12:17.766Z,101130.65
2018-06-08T10:14:50.239Z,101132.11
2018-06-08T10:17:19.154Z,101138.38
2018-06-08T10:19:48.248Z,101132.89
2018-06-08T10:22:17.161Z,101129.63
2018-06-08T10:24:46.074Z,101121.72
2018-06-08T10:27:14.986Z,101115.73
2018-06-08T10:29:43.917Z,101112.28
2018-06-08T10:32:12.842Z,101112.62
2018-06-08T10:34:41.768Z,101109.85
2018-06-08T10:37:10.702Z,101108.98
2018-06-08T10:39:39.641Z,101096.66
2018-06-08T10:42:08.582Z,101096.66
2018-06-08T10:44:38.028Z,101099.44
2018-06-08T10:47:06.962Z,101100.00
2018-06-08T10:49:36.190Z,101098.05
2018-06-08T10:52:05.213Z,101098.88
2018-06-08T10:54:34.141Z,101099.72
2018-06-08T10:57:03.089Z,101093.43
2018-06-08T10:59:32.027Z,101099.73
2018-06-08T11:02:00.931Z,101104.98
2018-06-08T11:04:29.860Z,101108.27
2018-06-08T11:06:58.803Z,101109.31
2018-06-08T11:09:27.739Z,101110.44
2018-06-08T11:11:56.665Z,101108.78
2018-06-08T11:14:25.563Z,101102.22
2018-06-08T11:16:54.522Z,101103.56
2018-06-08T11:19:23.453Z,101101.94
2018-06-08T11:21:52.399Z,101107.17
2018-06-08T11:24:21.308Z,101103.62
2018-06-08T11:26:50.250Z,101098.40
2018-06-08T11:29:19.204Z,101100.84
2018-06-08T11:31:48.322Z,101106.33
2018-06-08T11:34:17.268Z,101109.64
2018-06-08T11:36:46.174Z,101111.53
2018-06-08T11:39:15.354Z,101104.23
2018-06-08T11:41:44.290Z,101109.16
2018-06-08T11:44:16.953Z,101102.88
2018-06-08T11:46:46.267Z,101102.57
2018-06-08T11:49:15.364Z,101112.16
2018-06-08T11:51:44.670Z,101106.42
2018-06-08T11:54:13.638Z,101105.05
2018-06-08T11:56:42.626Z,101105.57
2018-06-08T11:59:11.589Z,101100.92
2018-06-08T12:01:40.546Z,101094.10
2018-06-08T12:04:09.477Z,101101.47
2018-06-08T12:06:41.802Z,101088.86
2018-06-08T12:09:10.987Z,101087.20
2018-06-08T12:11:39.882Z,101086.43
2018-06-08T12:14:08.838Z,101087.28
2018-06-08T12:16:37.774Z,101075.54
2018-06-08T12:19:06.811Z,101086.45
2018-06-08T12:21:35.821Z,101081.52
2018-06-08T12:24:04.844Z,101080.42
2018-06-08T12:26:37.034Z,101079.30
2018-06-08T12:29:05.958Z,101069.70
2018-06-08T12:31:34.881Z,101066.66
2018-06-08T12:34:03.799Z,101055.45
2018-06-08T12:36:32.721Z,101049.91
2018-06-08T12:39:02.787Z,101054.56
2018-06-08T12:41:31.734Z,101046.95
2018-06-08T12:44:00.651Z,101041.17
2018-06-08T12:46:32.591Z,101040.83
2018-06-08T12:49:01.675Z,101036.95
2018-06-08T12:51:30.647Z,101042.39
2018-06-08T12:53:59.596Z,101033.44
2018-06-08T12:56:28.507Z,101044.66
2018-06-08T12:58:57.438Z,101050.97
2018-06-08T13:01:26.361Z,101047.89
2018-06-08T13:03:55.297Z,101043.22
2018-06-08T13:06:24.213Z,101035.80
2018-06-08T13:08:53.134Z,101031.72
2018-06-08T13:11:25.694Z,101035.80
2018-06-08T13:13:54.701Z,101037.34
2018-06-08T13:16:23.828Z,101040.94
2018-06-08T13:18:52.751Z,101043.95
2018-06-08T13:21:25.462Z,101049.70
2018-06-08T13:23:54.469Z,101050.20
2018-06-08T13:26:24.391Z,101048.93
2018-06-08T13:28:53.341Z,101044.87
2018-06-08T13:31:22.297Z,101043.87
2018-06-08T13:33:54.512Z,101040.02
2018-06-08T13:36:23.420Z,101041.56
2018-06-08T13:38:52.342Z,101041.95
2018-06-08T13:41:21.304Z,101031.86
2018-06-08T13:43:50.228Z,101031.48
2018-06-08T13:46:30.544Z,101028.61
2018-06-08T13:48:59.440Z,101018.00
2018-06-08T13:51:28.356Z,101022.78
2018-06-08T13:53:57.275Z,101021.11
2018-06-08T13:56:30.048Z,101017.63
2018-06-08T13:58:58.972Z,101013.54
2018-06-08T14:01:27.923Z,101011.13
2018-06-08T14:03:56.861Z,101013.30
2018-06-08T14:06:25.767Z,101016.44
2018-06-08T14:08:54.693Z,101018.97
2018-06-08T14:11:23.639Z,101009.97
2018-06-08T14:13:52.553Z,101012.41
2018-06-08T14:16:21.487Z,101010.13
2018-06-08T14:18:50.441Z,101006.39
2018-06-08T14:21:19.350Z,101004.23
2018-06-08T14:23:48.291Z,101005.30
2018-06-08T14:26:17.228Z,100996.57
2018-06-08T14:28:46.149Z,100998.28
2018-06-08T14:31:15.063Z,101001.66
2018-06-08T14:33:43.980Z,100996.23
2018-06-08T14:36:12.910Z,100994.16
2018-06-08T14:38:45.243Z,100998.02
2018-06-08T14:41:14.190Z,100999.34
2018-06-08T14:43:43.108Z,100996.94
2018-06-08T14:46:12.027Z,101001.83
2018-06-08T14:48:40.997Z,100993.16
2018-06-08T14:51:09.892Z,100999.23
2018-06-08T14:53:38.961Z,101001.78
2018-06-08T14:56:07.840Z,100990.17
2018-06-08T14:58:36.785Z,100996.41
2018-06-08T15:01:07.745Z,100997.38
2018-06-08T15:03:36.686Z,101001.72
2018-06-08T15:06:05.659Z,100995.88
2018-06-08T15:08:34.573Z,100994.80
2018-06-08T15:11:03.553Z,100993.22
2018-06-08T15:13:32.442Z,100990.17
2018-06-08T15:16:03.370Z,100979.55
2018-06-08T15:18:32.293Z,100985.63
2018-06-08T15:21:01.207Z,100984.67
2018-06-08T15:23:30.174Z,100987.36
2018-06-08T15:25:59.121Z,100984.11
2018-06-08T15:28:28.071Z,100985.95
2018-06-08T15:30:56.995Z,100977.64
2018-06-08T15:33:25.961Z,100982.79
2018-06-08T15:35:54.878Z,100978.11
2018-06-08T15:38:24.020Z,100982.16
2018-06-08T15:40:52.931Z,100977.91
2018-06-08T15:43:21.878Z,100982.45
2018-06-08T15:45:50.810Z,100979.07
2018-06-08T15:48:19.759Z,100970.38
2018-06-08T15:50:49.182Z,100962.84
2018-06-08T15:53:18.083Z,100963.03
2018-06-08T15:55:47.074Z,100965.52
2018-06-08T15:58:16.189Z,100967.15
2018-06-08T16:00:45.105Z,100955.14
2018-06-08T16:03:14.069Z,100953.70
2018-06-08T16:05:42.987Z,100950.38
2018-06-08T16:08:11.925Z,100951.64
2018-06-08T16:10:40.848Z,100953.28
2018-06-08T16:13:09.783Z,100951.10
2018-06-08T16:15:38.695Z,100948.20
2018-06-08T16:18:07.649Z,100944.44
2018-06-08T16:20:36.574Z,100950.31
2018-06-08T16:23:05.749Z,100944.55
2018-06-08T16:25:34.692Z,100939.75
2018-06-08T16:28:03.645Z,100939.25
2018-06-08T16:30:32.582Z,100938.75
2018-06-08T16:33:01.589Z,100941.20
2018-06-08T16:35:30.518Z,100937.34
2018-06-08T16:37:59.450Z,100933.53
2018-06-08T16:40:28.375Z,100932.20
2018-06-08T16:42:57.309Z,100929.42
2018-06-08T16:45:26.240Z,100923.89
2018-06-08T16:47:55.223Z,100924.50
2018-06-08T16:50:24.136Z,100921.23
2018-06-08T16:52:53.074Z,100920.12
2018-06-08T16:55:21.987Z,100915.70
2018-06-08T16:57:50.954Z,100921.23
2018-06-08T17:00:19.896Z,100920.95
2018-06-08T17:02:48.838Z,100925.61
2018-06-08T17:05:17.749Z,100925.65
2018-06-08T17:07:46.695Z,100939.41
2018-06-08T17:10:15.621Z,100940.05
2018-06-08T17:12:48.203Z,100944.70
2018-06-08T17:15:17.251Z,100941.46
2018-06-08T17:17:46.164Z,100948.02
2018-06-08T17:20:15.079Z,100940.09
2018-06-08T17:22:44.006Z,100945.87
2018-06-08T17:25:12.976Z,100955.52
2018-06-08T17:27:41.882Z,100958.84
2018-06-08T17:30:10.792Z,100961.69
2018-06-08T17:32:39.717Z,100963.89
2018-06-08T17:35:08.752Z,100960.58
2018-06-08T17:37:37.633Z,100962.98
2018-06-08T17:40:06.871Z,100961.69
2018-06-08T17:42:35.798Z,100962.59
2018-06-08T17:45:04.990Z,100957.88
2018-06-08T17:47:33.917Z,100964.77
2018-06-08T17:50:06.187Z,100965.06
2018-06-08T17:52:35.140Z,100959.95
2018-06-08T17:55:04.071Z,100968.95
2018-06-08T17:57:33.066Z,100969.28
2018-06-08T18:00:02.002Z,100972.32
2018-06-08T18:02:30.978Z,100968.75
2018-06-08T18:05:00.177Z,100966.00
2018-06-08T18:07:29.115Z,100965.47
2018-06-08T18:09:58.061Z,100967.11
2018-06-08T18:12:27.287Z,100967.91
2018-06-08T18:14:56.217Z,100972.86
2018-06-08T18:17:25.131Z,100974.53
2018-06-08T18:19:54.081Z,100974.83
2018-06-08T18:22:23.006Z,100974.30
2018-06-08T18:24:51.938Z,100980.88
2018-06-08T18:27:20.873Z,100979.78
2018-06-08T18:29:49.790Z,100979.24
2018-06-08T18:32:18.740Z,100978.41
2018-06-08T18:34:47.653Z,100972.98
2018-06-08T18:37:19.932Z,100980.17
2018-06-08T18:39:48.860Z,100985.63
2018-06-08T18:42:17.779Z,100983.69
2018-06-08T18:44:46.754Z,100980.14
2018-06-08T18:47:15.670Z,100979.91
2018-06-08T18:49:44.624Z,100976.13
2018-06-08T18:52:13.636Z,100975.29
2018-06-08T18:54:42.572Z,100976.69
2018-06-08T18:57:11.518Z,100978.06
2018-06-08T18:59:41.415Z,100978.06
2018-06-08T19:02:10.351Z,100976.45
2018-06-08T19:04:39.267Z,100969.59
2018-06-08T19:07:08.188Z,100969.87
2018-06-08T19:09:37.128Z,100966.65
2018-06-08T19:12:06.061Z,100969.39
2018-06-08T19:14:34.972Z,100970.79
2018-06-08T19:17:03.891Z,100968.61
2018-06-08T19:19:32.828Z,100968.91
2018-06-08T19:22:01.762Z,100967.52
2018-06-08T19:24:30.878Z,100973.00
2018-06-08T19:26:59.794Z,100972.72
2018-06-08T19:29:28.754Z,100968.34
2018-06-08T19:31:57.689Z,100967.87
2018-06-08T19:34:26.610Z,100969.20
2018-06-08T19:36:55.543Z,100968.67
2018-06-08T19:39:25.038Z,100964.83
2018-06-08T19:41:53.950Z,100968.94
2018-06-08T19:44:22.919Z,100966.80
2018-06-08T19:46:51.827Z,100958.60
2018-06-08T19:49:21.164Z,100957.83
2018-06-08T19:51:50.090Z,100957.32
2018-06-08T19:54:19.012Z,100956.51
2018-06-08T19:56:47.955Z,100960.00
2018-06-08T19:59:17.003Z,100959.49
2018-06-08T20:01:45.930Z,100959.88
2018-06-08T20:04:14.940Z,100967.31
2018-06-08T20:06:43.865Z,100976.11
2018-06-08T20:09:12.771Z,100974.42
2018-06-08T20:11:43.712Z,100981.30
2018-06-08T20:14:14.645Z,100980.50
2018-06-08T20:16:43.547Z,100985.70
2018-06-08T20:19:12.452Z,100984.66
2018-06-08T20:21:41.377Z,100983.31
2018-06-08T20:24:10.320Z,100986.08
2018-06-08T20:26:39.225Z,100984.75
2018-06-08T20:29:08.197Z,100982.28
2018-06-08T20:31:37.089Z,100987.45
2018-06-08T20:34:06.090Z,100989.05
2018-06-08T20:36:34.980Z,100987.72
2018-06-08T20:39:05.962Z,100991.59
2018-06-08T20:41:34.916Z,100992.16
2018-06-08T20:44:06.964Z,100994.63
2018-06-08T20:46:35.895Z,100989.71
2018-06-08T20:49:04.849Z,100985.36
2018-06-08T20:51:33.755Z,100986.17
2018-06-08T20:54:06.878Z,100995.48
2018-06-08T20:56:35.795Z,101002.33
2018-06-08T20:59:04.701Z,101006.44
2018-06-08T21:01:33.632Z,101009.13
2018-06-08T21:04:02.577Z,101012.43
2018-06-08T21:06:31.502Z,101009.67
2018-06-08T21:09:04.078Z,101012.45
2018-06-08T21:11:33.090Z,101013.62
2018-06-08T21:14:02.195Z,101004.26
2018-06-08T21:16:31.461Z,101002.58
2018-06-08T21:19:00.500Z,101009.70
2018-06-08T21:21:29.809Z,101013.55
2018-06-08T21:23:58.735Z,101015.48
2018-06-08T21:26:28.017Z,101014.45
2018-06-08T21:28:56.954Z,101009.23
2018-06-08T21:31:25.942Z,101006.48
2018-06-08T21:33:54.894Z,101010.31
2018-06-08T21:36:24.069Z,101015.23
2018-06-08T21:38:53.078Z,101007.58
2018-06-08T21:41:22.013Z,101011.16
2018-06-08T21:43:50.963Z,101011.17
2018-06-08T21:46:19.859Z,101010.31
2018-06-08T21:48:48.783Z,101003.48
2018-06-08T21:51:17.721Z,101003.19
2018-06-08T21:53:46.682Z,101008.42
2018-06-08T21:56:15.606Z,101005.73
2018-06-08T21:58:44.713Z,101003.50
2018-06-08T22:01:13.638Z,101005.16
2018-06-08T22:03:42.562Z,101005.70
2018-06-08T22:06:11.475Z,100997.22
2018-06-08T22:08:40.466Z,101005.44
2018-06-08T22:11:09.412Z,101000.77
2018-06-08T22:13:38.502Z,100992.02
2018-06-08T22:16:07.440Z,100997.73
2018-06-08T22:18:36.407Z,100999.37
2018-06-08T22:21:05.417Z,101001.33
2018-06-08T22:23:34.421Z,100997.77
2018-06-08T22:26:03.530Z,101003.77
2018-06-08T22:28:32.415Z,100998.59
2018-06-08T22:31:04.861Z,101000.20
2018-06-08T22:33:33.810Z,100992.57
2018-06-08T22:36:02.795Z,100995.33
2018-06-08T22:38:31.728Z,100987.14
2018-06-08T22:41:02.653Z,100989.84
2018-06-08T22:43:31.570Z,100976.23
2018-06-08T22:46:00.567Z,100978.66
2018-06-08T22:48:29.455Z,100981.89
2018-06-08T22:50:58.381Z,100982.48
2018-06-08T22:53:27.293Z,100981.64
2018-06-08T22:55:56.241Z,100978.66
2018-06-08T22:58:25.207Z,100968.84
2018-06-08T23:00:54.163Z,100967.19
2018-06-08T23:03:23.040Z,100966.63
2018-06-08T23:05:52.023Z,100971.57
2018-06-08T23:08:24.751Z,100969.89
2018-06-08T23:10:53.907Z,100970.71
2018-06-08T23:13:22.908Z,100973.18
2018-06-08T23:15:51.864Z,100975.66
2018-06-08T23:18:20.800Z,100975.67
2018-06-08T23:20:49.805Z,100981.17
2018-06-08T23:23:18.875Z,100979.78
2018-06-08T23:25:47.908Z,100979.22
2018-06-08T23:28:16.830Z,100976.81
2018-06-08T23:30:45.753Z,100970.84
2018-06-08T23:33:14.941Z,100972.25
2018-06-08T23:35:43.956Z,100971.73
2018-06-08T23:38:16.435Z,100970.88
2018-06-08T23:40:45.411Z,100974.98
2018-06-08T23:43:14.389Z,100973.66
2018-06-08T23:45:43.319Z,100970.66
2018-06-08T23:48:16.079Z,100966.85
2018-06-08T23:50:45.014Z,100964.15
2018-06-08T23:53:13.970Z,100968.77
2018-06-08T23:55:42.990Z,100973.69
2018-06-08T23:58:11.989Z,100970.95
